sensor_id;sensor_type;location;lat;lon;timestamp;P1;durP1;ratioP1;P2;durP2;ratioP2
19213;SDS011;9741;51.020;5.304;2022-11-20T00:01:40;2.40;;;2.20;;
19213;SDS011;9741;51.020;5.304;2022-11-20T00:04:10;3.50;;;2.67;;
19213;SDS011;9741;51.020;5.304;2022-11-20T00:06:40;2.93;;;2.40;;
19213;SDS011;9741;51.020;5.304;2022-11-20T00:09:09;9.17;;;3.27;;
19213;SDS011;9741;51.020;5.304;2022-11-20T00:11:42;6.00;;;3.33;;
19213;SDS011;9741;51.020;5.304;2022-11-20T00:14:13;8.67;;;3.20;;
19213;SDS011;9741;51.020;5.304;2022-11-20T00:16:42;10.07;;;4.57;;
19213;SDS011;9741;51.020;5.304;2022-11-20T00:19:11;4.83;;;3.50;;
19213;SDS011;9741;51.020;5.304;2022-11-20T00:21:39;4.70;;;3.17;;
19213;SDS011;9741;51.020;5.304;2022-11-20T00:24:08;3.60;;;2.63;;
19213;SDS011;9741;51.020;5.304;2022-11-20T00:26:36;3.03;;;2.27;;
19213;SDS011;9741;51.020;5.304;2022-11-20T00:29:09;8.03;;;3.53;;
19213;SDS011;9741;51.020;5.304;2022-11-20T00:31:40;7.00;;;3.77;;
19213;SDS011;9741;51.020;5.304;2022-11-20T00:34:09;6.93;;;3.57;;
19213;SDS011;9741;51.020;5.304;2022-11-20T00:36:37;4.63;;;3.10;;
19213;SDS011;9741;51.020;5.304;2022-11-20T00:39:09;8.87;;;4.80;;
19213;SDS011;9741;51.020;5.304;2022-11-20T00:41:51;4.80;;;2.50;;
19213;SDS011;9741;51.020;5.304;2022-11-20T00:44:25;6.07;;;3.40;;
19213;SDS011;9741;51.020;5.304;2022-11-20T00:47:01;5.37;;;2.93;;
19213;SDS011;9741;51.020;5.304;2022-11-20T00:49:34;8.27;;;3.80;;
19213;SDS011;9741;51.020;5.304;2022-11-20T00:52:03;4.73;;;2.47;;
19213;SDS011;9741;51.020;5.304;2022-11-20T00:54:30;6.27;;;2.87;;
19213;SDS011;9741;51.020;5.304;2022-11-20T00:57:01;2.53;;;2.33;;
19213;SDS011;9741;51.020;5.304;2022-11-20T00:59:30;9.83;;;3.77;;
19213;SDS011;9741;51.020;5.304;2022-11-20T01:01:59;2.73;;;2.47;;
19213;SDS011;9741;51.020;5.304;2022-11-20T01:04:28;2.43;;;1.97;;
19213;SDS011;9741;51.020;5.304;2022-11-20T01:06:57;6.40;;;1.47;;
19213;SDS011;9741;51.020;5.304;2022-11-20T01:09:25;5.53;;;2.70;;
19213;SDS011;9741;51.020;5.304;2022-11-20T01:11:54;4.03;;;3.13;;
19213;SDS011;9741;51.020;5.304;2022-11-20T01:14:22;3.00;;;2.10;;
19213;SDS011;9741;51.020;5.304;2022-11-20T01:17:06;7.00;;;2.67;;
19213;SDS011;9741;51.020;5.304;2022-11-20T01:19:33;2.60;;;2.13;;
19213;SDS011;9741;51.020;5.304;2022-11-20T01:22:03;3.23;;;2.73;;
19213;SDS011;9741;51.020;5.304;2022-11-20T01:24:32;4.07;;;3.30;;
19213;SDS011;9741;51.020;5.304;2022-11-20T01:27:00;6.77;;;2.37;;
19213;SDS011;9741;51.020;5.304;2022-11-20T01:29:30;5.73;;;3.23;;
19213;SDS011;9741;51.020;5.304;2022-11-20T01:32:04;3.03;;;2.40;;
19213;SDS011;9741;51.020;5.304;2022-11-20T01:34:32;6.17;;;3.30;;
19213;SDS011;9741;51.020;5.304;2022-11-20T01:36:59;3.87;;;3.07;;
19213;SDS011;9741;51.020;5.304;2022-11-20T01:39:28;4.43;;;3.13;;
19213;SDS011;9741;51.020;5.304;2022-11-20T01:41:56;4.77;;;3.23;;
19213;SDS011;9741;51.020;5.304;2022-11-20T01:44:47;7.03;;;3.40;;
19213;SDS011;9741;51.020;5.304;2022-11-20T01:47:55;3.97;;;3.13;;
19213;SDS011;9741;51.020;5.304;2022-11-20T01:50:24;3.47;;;2.57;;
19213;SDS011;9741;51.020;5.304;2022-11-20T01:53:00;5.90;;;3.90;;
19213;SDS011;9741;51.020;5.304;2022-11-20T01:55:34;6.33;;;2.83;;
19213;SDS011;9741;51.020;5.304;2022-11-20T01:58:09;3.40;;;2.13;;
19213;SDS011;9741;51.020;5.304;2022-11-20T02:00:45;4.20;;;2.93;;
19213;SDS011;9741;51.020;5.304;2022-11-20T02:03:30;3.50;;;2.40;;
19213;SDS011;9741;51.020;5.304;2022-11-20T02:06:04;7.93;;;3.53;;
19213;SDS011;9741;51.020;5.304;2022-11-20T02:08:37;5.60;;;2.80;;
19213;SDS011;9741;51.020;5.304;2022-11-20T02:11:06;5.30;;;2.80;;
19213;SDS011;9741;51.020;5.304;2022-11-20T02:13:38;4.87;;;3.33;;
19213;SDS011;9741;51.020;5.304;2022-11-20T02:16:14;6.97;;;4.60;;
19213;SDS011;9741;51.020;5.304;2022-11-20T02:18:50;5.90;;;4.33;;
19213;SDS011;9741;51.020;5.304;2022-11-20T02:21:34;3.27;;;2.87;;
19213;SDS011;9741;51.020;5.304;2022-11-20T02:24:29;1.93;;;1.83;;
19213;SDS011;9741;51.020;5.304;2022-11-20T02:27:04;4.70;;;2.37;;
19213;SDS011;9741;51.020;5.304;2022-11-20T02:29:36;5.47;;;2.53;;
19213;SDS011;9741;51.020;5.304;2022-11-20T02:32:17;3.83;;;2.90;;
19213;SDS011;9741;51.020;5.304;2022-11-20T02:34:48;4.03;;;3.57;;
19213;SDS011;9741;51.020;5.304;2022-11-20T02:37:18;4.67;;;3.30;;
19213;SDS011;9741;51.020;5.304;2022-11-20T02:39:52;4.30;;;3.40;;
19213;SDS011;9741;51.020;5.304;2022-11-20T02:42:21;3.60;;;2.80;;
19213;SDS011;9741;51.020;5.304;2022-11-20T02:44:52;4.07;;;2.63;;
19213;SDS011;9741;51.020;5.304;2022-11-20T02:47:23;3.63;;;2.27;;
19213;SDS011;9741;51.020;5.304;2022-11-20T02:49:58;3.80;;;2.57;;
19213;SDS011;9741;51.020;5.304;2022-11-20T02:52:25;4.67;;;2.80;;
19213;SDS011;9741;51.020;5.304;2022-11-20T02:55:17;3.40;;;2.03;;
19213;SDS011;9741;51.020;5.304;2022-11-20T02:57:49;9.40;;;3.10;;
19213;SDS011;9741;51.020;5.304;2022-11-20T03:00:17;2.53;;;2.27;;
19213;SDS011;9741;51.020;5.304;2022-11-20T03:02:46;5.20;;;2.27;;
19213;SDS011;9741;51.020;5.304;2022-11-20T03:05:14;4.30;;;2.60;;
19213;SDS011;9741;51.020;5.304;2022-11-20T03:07:43;4.43;;;2.67;;
19213;SDS011;9741;51.020;5.304;2022-11-20T03:10:16;2.20;;;2.00;;
19213;SDS011;9741;51.020;5.304;2022-11-20T03:12:44;4.77;;;3.63;;
19213;SDS011;9741;51.020;5.304;2022-11-20T03:15:14;3.40;;;2.53;;
19213;SDS011;9741;51.020;5.304;2022-11-20T03:17:44;2.17;;;1.93;;
19213;SDS011;9741;51.020;5.304;2022-11-20T03:20:22;8.63;;;2.83;;
19213;SDS011;9741;51.020;5.304;2022-11-20T03:22:53;2.23;;;1.60;;
19213;SDS011;9741;51.020;5.304;2022-11-20T03:25:25;4.03;;;3.33;;
19213;SDS011;9741;51.020;5.304;2022-11-20T03:27:56;5.73;;;3.00;;
19213;SDS011;9741;51.020;5.304;2022-11-20T03:30:25;4.23;;;3.30;;
19213;SDS011;9741;51.020;5.304;2022-11-20T03:32:55;3.67;;;3.07;;
19213;SDS011;9741;51.020;5.304;2022-11-20T03:35:25;3.23;;;2.20;;
19213;SDS011;9741;51.020;5.304;2022-11-20T03:37:53;2.63;;;1.80;;
19213;SDS011;9741;51.020;5.304;2022-11-20T03:40:35;5.57;;;2.77;;
19213;SDS011;9741;51.020;5.304;2022-11-20T03:43:02;5.13;;;2.57;;
19213;SDS011;9741;51.020;5.304;2022-11-20T03:45:32;3.90;;;2.33;;
19213;SDS011;9741;51.020;5.304;2022-11-20T03:48:02;7.20;;;2.67;;
19213;SDS011;9741;51.020;5.304;2022-11-20T03:50:30;3.43;;;2.23;;
19213;SDS011;9741;51.020;5.304;2022-11-20T03:52:57;3.80;;;2.87;;
19213;SDS011;9741;51.020;5.304;2022-11-20T03:55:25;5.93;;;2.83;;
19213;SDS011;9741;51.020;5.304;2022-11-20T03:57:55;5.43;;;4.43;;
19213;SDS011;9741;51.020;5.304;2022-11-20T04:00:35;4.70;;;2.33;;
19213;SDS011;9741;51.020;5.304;2022-11-20T04:03:03;5.47;;;3.23;;
19213;SDS011;9741;51.020;5.304;2022-11-20T04:05:34;2.47;;;2.27;;
19213;SDS011;9741;51.020;5.304;2022-11-20T04:08:04;1.53;;;1.43;;
19213;SDS011;9741;51.020;5.304;2022-11-20T04:10:33;3.63;;;2.30;;
19213;SDS011;9741;51.020;5.304;2022-11-20T04:13:05;6.00;;;3.80;;
19213;SDS011;9741;51.020;5.304;2022-11-20T04:15:34;8.73;;;3.83;;
19213;SDS011;9741;51.020;5.304;2022-11-20T04:18:03;4.17;;;3.77;;
19213;SDS011;9741;51.020;5.304;2022-11-20T04:20:33;3.87;;;2.47;;
19213;SDS011;9741;51.020;5.304;2022-11-20T04:23:01;1.57;;;1.47;;
19213;SDS011;9741;51.020;5.304;2022-11-20T04:25:30;6.73;;;3.37;;
19213;SDS011;9741;51.020;5.304;2022-11-20T04:27:58;4.23;;;3.20;;
19213;SDS011;9741;51.020;5.304;2022-11-20T04:30:29;3.40;;;2.47;;
19213;SDS011;9741;51.020;5.304;2022-11-20T04:33:00;4.00;;;2.63;;
19213;SDS011;9741;51.020;5.304;2022-11-20T04:35:28;9.23;;;3.37;;
19213;SDS011;9741;51.020;5.304;2022-11-20T04:38:00;6.07;;;3.70;;
19213;SDS011;9741;51.020;5.304;2022-11-20T04:40:31;3.10;;;2.70;;
19213;SDS011;9741;51.020;5.304;2022-11-20T04:43:00;5.73;;;2.83;;
19213;SDS011;9741;51.020;5.304;2022-11-20T04:45:34;8.80;;;5.07;;
19213;SDS011;9741;51.020;5.304;2022-11-20T04:48:01;3.93;;;2.57;;
19213;SDS011;9741;51.020;5.304;2022-11-20T04:50:34;9.53;;;3.50;;
19213;SDS011;9741;51.020;5.304;2022-11-20T04:53:12;4.97;;;3.33;;
19213;SDS011;9741;51.020;5.304;2022-11-20T04:55:40;15.40;;;5.13;;
19213;SDS011;9741;51.020;5.304;2022-11-20T04:58:09;6.60;;;4.47;;
19213;SDS011;9741;51.020;5.304;2022-11-20T05:00:43;5.40;;;3.63;;
19213;SDS011;9741;51.020;5.304;2022-11-20T05:03:10;5.17;;;3.07;;
19213;SDS011;9741;51.020;5.304;2022-11-20T05:05:38;6.00;;;4.23;;
19213;SDS011;9741;51.020;5.304;2022-11-20T05:08:10;4.33;;;2.77;;
19213;SDS011;9741;51.020;5.304;2022-11-20T05:10:41;4.97;;;2.57;;
19213;SDS011;9741;51.020;5.304;2022-11-20T05:13:09;7.07;;;2.83;;
19213;SDS011;9741;51.020;5.304;2022-11-20T05:15:38;6.03;;;2.93;;
19213;SDS011;9741;51.020;5.304;2022-11-20T05:18:11;14.60;;;2.90;;
19213;SDS011;9741;51.020;5.304;2022-11-20T05:20:42;7.87;;;4.50;;
19213;SDS011;9741;51.020;5.304;2022-11-20T05:23:13;13.20;;;4.60;;
19213;SDS011;9741;51.020;5.304;2022-11-20T05:25:41;10.50;;;4.20;;
19213;SDS011;9741;51.020;5.304;2022-11-20T05:28:09;4.47;;;2.67;;
19213;SDS011;9741;51.020;5.304;2022-11-20T05:30:38;4.13;;;3.27;;
19213;SDS011;9741;51.020;5.304;2022-11-20T05:33:08;2.83;;;2.37;;
19213;SDS011;9741;51.020;5.304;2022-11-20T05:35:45;9.57;;;2.97;;
19213;SDS011;9741;51.020;5.304;2022-11-20T05:38:16;3.37;;;3.07;;
19213;SDS011;9741;51.020;5.304;2022-11-20T05:40:45;5.43;;;2.73;;
19213;SDS011;9741;51.020;5.304;2022-11-20T05:43:15;12.77;;;5.90;;
19213;SDS011;9741;51.020;5.304;2022-11-20T05:45:51;5.07;;;3.97;;
19213;SDS011;9741;51.020;5.304;2022-11-20T05:48:23;11.73;;;5.27;;
19213;SDS011;9741;51.020;5.304;2022-11-20T05:50:55;5.60;;;4.53;;
19213;SDS011;9741;51.020;5.304;2022-11-20T05:53:27;4.63;;;3.53;;
19213;SDS011;9741;51.020;5.304;2022-11-20T05:55:58;3.40;;;3.03;;
19213;SDS011;9741;51.020;5.304;2022-11-20T05:58:48;6.00;;;3.13;;
19213;SDS011;9741;51.020;5.304;2022-11-20T06:01:18;9.43;;;4.27;;
19213;SDS011;9741;51.020;5.304;2022-11-20T06:03:52;3.87;;;3.27;;
19213;SDS011;9741;51.020;5.304;2022-11-20T06:06:21;3.97;;;2.80;;
19213;SDS011;9741;51.020;5.304;2022-11-20T06:09:02;7.27;;;2.07;;
19213;SDS011;9741;51.020;5.304;2022-11-20T06:11:33;5.07;;;3.63;;
19213;SDS011;9741;51.020;5.304;2022-11-20T06:14:03;2.83;;;2.33;;
19213;SDS011;9741;51.020;5.304;2022-11-20T06:16:34;4.67;;;3.37;;
19213;SDS011;9741;51.020;5.304;2022-11-20T06:19:05;4.97;;;2.97;;
19213;SDS011;9741;51.020;5.304;2022-11-20T06:21:40;5.30;;;3.87;;
19213;SDS011;9741;51.020;5.304;2022-11-20T06:24:09;5.47;;;4.60;;
19213;SDS011;9741;51.020;5.304;2022-11-20T06:26:36;4.87;;;3.73;;
19213;SDS011;9741;51.020;5.304;2022-11-20T06:29:06;6.83;;;3.63;;
19213;SDS011;9741;51.020;5.304;2022-11-20T06:31:35;7.83;;;3.03;;
19213;SDS011;9741;51.020;5.304;2022-11-20T06:34:12;5.07;;;3.13;;
19213;SDS011;9741;51.020;5.304;2022-11-20T06:36:40;13.90;;;4.87;;
19213;SDS011;9741;51.020;5.304;2022-11-20T06:39:08;7.90;;;3.63;;
19213;SDS011;9741;51.020;5.304;2022-11-20T06:41:38;6.07;;;3.27;;
19213;SDS011;9741;51.020;5.304;2022-11-20T06:44:12;3.60;;;2.47;;
19213;SDS011;9741;51.020;5.304;2022-11-20T06:46:41;5.63;;;4.13;;
19213;SDS011;9741;51.020;5.304;2022-11-20T06:49:24;4.10;;;2.73;;
19213;SDS011;9741;51.020;5.304;2022-11-20T06:51:52;7.47;;;4.53;;
19213;SDS011;9741;51.020;5.304;2022-11-20T06:54:20;4.50;;;3.53;;
19213;SDS011;9741;51.020;5.304;2022-11-20T06:57:01;8.80;;;4.70;;
19213;SDS011;9741;51.020;5.304;2022-11-20T06:59:30;5.50;;;3.97;;
19213;SDS011;9741;51.020;5.304;2022-11-20T07:02:08;5.23;;;3.13;;
19213;SDS011;9741;51.020;5.304;2022-11-20T07:04:41;5.63;;;2.80;;
19213;SDS011;9741;51.020;5.304;2022-11-20T07:07:09;11.20;;;4.20;;
19213;SDS011;9741;51.020;5.304;2022-11-20T07:09:37;5.37;;;3.93;;
19213;SDS011;9741;51.020;5.304;2022-11-20T07:12:06;3.17;;;2.87;;
19213;SDS011;9741;51.020;5.304;2022-11-20T07:14:34;3.10;;;2.80;;
19213;SDS011;9741;51.020;5.304;2022-11-20T07:17:02;16.40;;;4.70;;
19213;SDS011;9741;51.020;5.304;2022-11-20T07:19:29;11.27;;;2.93;;
19213;SDS011;9741;51.020;5.304;2022-11-20T07:22:01;11.07;;;3.87;;
19213;SDS011;9741;51.020;5.304;2022-11-20T07:24:28;4.23;;;3.47;;
19213;SDS011;9741;51.020;5.304;2022-11-20T07:26:56;4.83;;;3.37;;
19213;SDS011;9741;51.020;5.304;2022-11-20T07:29:33;7.03;;;3.67;;
19213;SDS011;9741;51.020;5.304;2022-11-20T07:32:04;4.03;;;3.20;;
19213;SDS011;9741;51.020;5.304;2022-11-20T07:34:33;12.00;;;3.37;;
19213;SDS011;9741;51.020;5.304;2022-11-20T07:37:06;4.30;;;2.27;;
19213;SDS011;9741;51.020;5.304;2022-11-20T07:39:38;5.63;;;3.87;;
19213;SDS011;9741;51.020;5.304;2022-11-20T07:42:06;5.60;;;3.83;;
19213;SDS011;9741;51.020;5.304;2022-11-20T07:44:37;8.20;;;4.70;;
19213;SDS011;9741;51.020;5.304;2022-11-20T07:47:07;4.67;;;3.73;;
19213;SDS011;9741;51.020;5.304;2022-11-20T07:49:36;8.63;;;3.60;;
19213;SDS011;9741;51.020;5.304;2022-11-20T07:52:03;8.53;;;4.93;;
19213;SDS011;9741;51.020;5.304;2022-11-20T07:54:57;6.33;;;4.27;;
19213;SDS011;9741;51.020;5.304;2022-11-20T07:57:26;5.03;;;3.57;;
19213;SDS011;9741;51.020;5.304;2022-11-20T07:59:54;8.20;;;4.30;;
19213;SDS011;9741;51.020;5.304;2022-11-20T08:02:23;11.23;;;4.77;;
19213;SDS011;9741;51.020;5.304;2022-11-20T08:04:52;6.50;;;3.87;;
19213;SDS011;9741;51.020;5.304;2022-11-20T08:07:21;5.33;;;2.93;;
19213;SDS011;9741;51.020;5.304;2022-11-20T08:09:54;4.07;;;2.47;;
19213;SDS011;9741;51.020;5.304;2022-11-20T08:12:22;4.90;;;3.40;;
19213;SDS011;9741;51.020;5.304;2022-11-20T08:15:08;13.30;;;3.23;;
19213;SDS011;9741;51.020;5.304;2022-11-20T08:17:44;7.70;;;3.93;;
19213;SDS011;9741;51.020;5.304;2022-11-20T08:20:12;7.63;;;3.53;;
19213;SDS011;9741;51.020;5.304;2022-11-20T08:22:40;19.63;;;5.00;;
19213;SDS011;9741;51.020;5.304;2022-11-20T08:25:22;8.03;;;5.07;;
19213;SDS011;9741;51.020;5.304;2022-11-20T08:27:50;6.27;;;4.07;;
19213;SDS011;9741;51.020;5.304;2022-11-20T08:30:18;11.17;;;4.50;;
19213;SDS011;9741;51.020;5.304;2022-11-20T08:32:45;6.60;;;5.53;;
19213;SDS011;9741;51.020;5.304;2022-11-20T08:35:15;9.40;;;5.17;;
19213;SDS011;9741;51.020;5.304;2022-11-20T08:37:45;10.53;;;5.37;;
19213;SDS011;9741;51.020;5.304;2022-11-20T08:40:28;10.10;;;4.60;;
19213;SDS011;9741;51.020;5.304;2022-11-20T08:42:55;6.47;;;3.33;;
19213;SDS011;9741;51.020;5.304;2022-11-20T08:45:24;11.70;;;4.47;;
19213;SDS011;9741;51.020;5.304;2022-11-20T08:47:52;7.07;;;3.53;;
19213;SDS011;9741;51.020;5.304;2022-11-20T08:50:29;8.63;;;4.87;;
19213;SDS011;9741;51.020;5.304;2022-11-20T08:53:05;12.17;;;3.70;;
19213;SDS011;9741;51.020;5.304;2022-11-20T08:55:45;10.07;;;5.53;;
19213;SDS011;9741;51.020;5.304;2022-11-20T08:58:17;8.63;;;4.43;;
19213;SDS011;9741;51.020;5.304;2022-11-20T09:00:44;7.77;;;4.70;;
19213;SDS011;9741;51.020;5.304;2022-11-20T09:03:14;9.67;;;4.00;;
19213;SDS011;9741;51.020;5.304;2022-11-20T09:05:43;6.47;;;4.20;;
19213;SDS011;9741;51.020;5.304;2022-11-20T09:08:19;2.97;;;2.33;;
19213;SDS011;9741;51.020;5.304;2022-11-20T09:10:52;6.40;;;3.43;;
19213;SDS011;9741;51.020;5.304;2022-11-20T09:13:27;3.80;;;2.97;;
19213;SDS011;9741;51.020;5.304;2022-11-20T09:15:56;12.57;;;5.63;;
19213;SDS011;9741;51.020;5.304;2022-11-20T09:18:26;6.97;;;4.60;;
19213;SDS011;9741;51.020;5.304;2022-11-20T09:21:03;11.77;;;4.90;;
19213;SDS011;9741;51.020;5.304;2022-11-20T09:23:34;5.13;;;2.90;;
19213;SDS011;9741;51.020;5.304;2022-11-20T09:26:06;8.23;;;5.33;;
19213;SDS011;9741;51.020;5.304;2022-11-20T09:28:40;11.93;;;6.07;;
19213;SDS011;9741;51.020;5.304;2022-11-20T09:31:11;8.87;;;3.77;;
19213;SDS011;9741;51.020;5.304;2022-11-20T09:33:48;8.10;;;4.90;;
19213;SDS011;9741;51.020;5.304;2022-11-20T09:36:19;8.63;;;5.27;;
19213;SDS011;9741;51.020;5.304;2022-11-20T09:38:49;6.17;;;4.47;;
19213;SDS011;9741;51.020;5.304;2022-11-20T09:41:46;4.80;;;3.70;;
19213;SDS011;9741;51.020;5.304;2022-11-20T09:44:30;5.07;;;3.23;;
19213;SDS011;9741;51.020;5.304;2022-11-20T09:47:27;6.57;;;3.23;;
19213;SDS011;9741;51.020;5.304;2022-11-20T09:50:14;15.07;;;5.13;;
19213;SDS011;9741;51.020;5.304;2022-11-20T09:52:53;10.13;;;3.97;;
19213;SDS011;9741;51.020;5.304;2022-11-20T09:55:38;6.03;;;4.20;;
19213;SDS011;9741;51.020;5.304;2022-11-20T09:58:19;4.93;;;3.93;;
19213;SDS011;9741;51.020;5.304;2022-11-20T10:01:05;6.20;;;3.90;;
19213;SDS011;9741;51.020;5.304;2022-11-20T10:03:45;11.97;;;4.30;;
19213;SDS011;9741;51.020;5.304;2022-11-20T10:06:22;6.13;;;3.10;;
19213;SDS011;9741;51.020;5.304;2022-11-20T10:08:59;10.63;;;4.87;;
19213;SDS011;9741;51.020;5.304;2022-11-20T10:11:39;7.13;;;2.73;;
19213;SDS011;9741;51.020;5.304;2022-11-20T10:14:20;7.57;;;4.60;;
19213;SDS011;9741;51.020;5.304;2022-11-20T10:17:00;15.33;;;5.07;;
19213;SDS011;9741;51.020;5.304;2022-11-20T10:19:46;6.47;;;4.80;;
19213;SDS011;9741;51.020;5.304;2022-11-20T10:25:15;9.63;;;5.30;;
19213;SDS011;9741;51.020;5.304;2022-11-20T10:30:56;13.17;;;4.80;;
19213;SDS011;9741;51.020;5.304;2022-11-20T10:33:43;12.37;;;3.93;;
19213;SDS011;9741;51.020;5.304;2022-11-20T10:36:21;7.77;;;4.37;;
19213;SDS011;9741;51.020;5.304;2022-11-20T10:38:54;8.00;;;4.67;;
19213;SDS011;9741;51.020;5.304;2022-11-20T10:41:26;10.00;;;5.37;;
19213;SDS011;9741;51.020;5.304;2022-11-20T10:44:03;6.63;;;4.47;;
19213;SDS011;9741;51.020;5.304;2022-11-20T10:47:14;16.57;;;8.30;;
19213;SDS011;9741;51.020;5.304;2022-11-20T10:49:45;7.03;;;4.97;;
19213;SDS011;9741;51.020;5.304;2022-11-20T10:52:25;9.07;;;5.87;;
19213;SDS011;9741;51.020;5.304;2022-11-20T10:55:18;5.03;;;3.67;;
19213;SDS011;9741;51.020;5.304;2022-11-20T10:58:03;4.33;;;3.13;;
19213;SDS011;9741;51.020;5.304;2022-11-20T11:00:37;12.23;;;4.23;;
19213;SDS011;9741;51.020;5.304;2022-11-20T11:03:15;7.93;;;4.87;;
19213;SDS011;9741;51.020;5.304;2022-11-20T11:05:49;7.90;;;4.43;;
19213;SDS011;9741;51.020;5.304;2022-11-20T11:08:25;25.83;;;9.10;;
19213;SDS011;9741;51.020;5.304;2022-11-20T11:11:05;5.90;;;4.57;;
19213;SDS011;9741;51.020;5.304;2022-11-20T11:13:43;6.30;;;4.67;;
19213;SDS011;9741;51.020;5.304;2022-11-20T11:16:16;8.50;;;5.30;;
19213;SDS011;9741;51.020;5.304;2022-11-20T11:19:03;10.43;;;3.93;;
19213;SDS011;9741;51.020;5.304;2022-11-20T11:21:34;7.77;;;5.97;;
19213;SDS011;9741;51.020;5.304;2022-11-20T11:24:15;25.37;;;8.73;;
19213;SDS011;9741;51.020;5.304;2022-11-20T11:26:52;8.87;;;5.63;;
19213;SDS011;9741;51.020;5.304;2022-11-20T11:29:24;4.33;;;3.83;;
19213;SDS011;9741;51.020;5.304;2022-11-20T11:32:07;14.57;;;6.20;;
19213;SDS011;9741;51.020;5.304;2022-11-20T11:34:57;11.07;;;5.87;;
19213;SDS011;9741;51.020;5.304;2022-11-20T11:37:27;8.03;;;5.30;;
19213;SDS011;9741;51.020;5.304;2022-11-20T11:40:05;9.00;;;4.93;;
19213;SDS011;9741;51.020;5.304;2022-11-20T11:42:41;9.47;;;5.63;;
19213;SDS011;9741;51.020;5.304;2022-11-20T11:45:11;11.17;;;5.03;;
19213;SDS011;9741;51.020;5.304;2022-11-20T11:47:45;8.27;;;4.93;;
19213;SDS011;9741;51.020;5.304;2022-11-20T11:50:28;11.40;;;4.47;;
19213;SDS011;9741;51.020;5.304;2022-11-20T11:53:07;10.27;;;5.00;;
19213;SDS011;9741;51.020;5.304;2022-11-20T11:55:40;7.87;;;4.10;;
19213;SDS011;9741;51.020;5.304;2022-11-20T11:58:17;3.87;;;2.97;;
19213;SDS011;9741;51.020;5.304;2022-11-20T12:01:07;6.13;;;4.40;;
19213;SDS011;9741;51.020;5.304;2022-11-20T12:03:52;13.40;;;6.33;;
19213;SDS011;9741;51.020;5.304;2022-11-20T12:06:42;14.20;;;5.67;;
19213;SDS011;9741;51.020;5.304;2022-11-20T12:09:15;10.73;;;6.13;;
19213;SDS011;9741;51.020;5.304;2022-11-20T12:11:49;16.27;;;5.67;;
19213;SDS011;9741;51.020;5.304;2022-11-20T12:14:24;7.70;;;4.80;;
19213;SDS011;9741;51.020;5.304;2022-11-20T12:16:59;6.23;;;4.67;;
19213;SDS011;9741;51.020;5.304;2022-11-20T12:19:31;10.10;;;4.77;;
19213;SDS011;9741;51.020;5.304;2022-11-20T12:22:20;11.43;;;5.83;;
19213;SDS011;9741;51.020;5.304;2022-11-20T12:24:56;8.57;;;4.93;;
19213;SDS011;9741;51.020;5.304;2022-11-20T12:27:43;7.00;;;4.33;;
19213;SDS011;9741;51.020;5.304;2022-11-20T12:30:59;9.87;;;4.80;;
19213;SDS011;9741;51.020;5.304;2022-11-20T12:34:13;10.27;;;5.13;;
19213;SDS011;9741;51.020;5.304;2022-11-20T12:37:30;7.60;;;3.90;;
19213;SDS011;9741;51.020;5.304;2022-11-20T12:40:27;8.77;;;4.57;;
19213;SDS011;9741;51.020;5.304;2022-11-20T12:43:19;7.03;;;3.27;;
19213;SDS011;9741;51.020;5.304;2022-11-20T12:46:17;6.73;;;3.67;;
19213;SDS011;9741;51.020;5.304;2022-11-20T12:49:02;9.60;;;5.90;;
19213;SDS011;9741;51.020;5.304;2022-11-20T12:51:53;8.80;;;4.53;;
19213;SDS011;9741;51.020;5.304;2022-11-20T12:55:07;3.13;;;2.53;;
19213;SDS011;9741;51.020;5.304;2022-11-20T12:58:06;6.50;;;3.70;;
19213;SDS011;9741;51.020;5.304;2022-11-20T13:00:42;6.97;;;3.13;;
19213;SDS011;9741;51.020;5.304;2022-11-20T13:03:29;6.47;;;2.70;;
19213;SDS011;9741;51.020;5.304;2022-11-20T13:06:16;3.30;;;2.70;;
19213;SDS011;9741;51.020;5.304;2022-11-20T13:08:53;4.47;;;2.43;;
19213;SDS011;9741;51.020;5.304;2022-11-20T13:11:31;4.57;;;2.33;;
19213;SDS011;9741;51.020;5.304;2022-11-20T13:14:12;1.73;;;1.50;;
19213;SDS011;9741;51.020;5.304;2022-11-20T13:16:56;2.57;;;1.53;;
19213;SDS011;9741;51.020;5.304;2022-11-20T13:19:31;1.13;;;1.03;;
19213;SDS011;9741;51.020;5.304;2022-11-20T13:22:02;1.33;;;1.23;;
19213;SDS011;9741;51.020;5.304;2022-11-20T13:24:32;1.33;;;1.23;;
19213;SDS011;9741;51.020;5.304;2022-11-20T13:27:26;0.50;;;0.50;;
19213;SDS011;9741;51.020;5.304;2022-11-20T13:30:11;0.60;;;0.60;;
19213;SDS011;9741;51.020;5.304;2022-11-20T13:32:54;0.70;;;0.70;;
19213;SDS011;9741;51.020;5.304;2022-11-20T13:35:29;0.63;;;0.63;;
19213;SDS011;9741;51.020;5.304;2022-11-20T13:38:03;1.50;;;0.70;;
19213;SDS011;9741;51.020;5.304;2022-11-20T13:40:37;0.40;;;0.40;;
19213;SDS011;9741;51.020;5.304;2022-11-20T13:43:27;1.43;;;0.67;;
19213;SDS011;9741;51.020;5.304;2022-11-20T13:46:03;0.30;;;0.30;;
19213;SDS011;9741;51.020;5.304;2022-11-20T13:48:39;10.83;;;1.00;;
19213;SDS011;9741;51.020;5.304;2022-11-20T13:51:12;0.60;;;0.60;;
19213;SDS011;9741;51.020;5.304;2022-11-20T13:54:03;0.37;;;0.37;;
19213;SDS011;9741;51.020;5.304;2022-11-20T13:57:01;0.83;;;0.83;;
19213;SDS011;9741;51.020;5.304;2022-11-20T13:59:53;0.53;;;0.53;;
19213;SDS011;9741;51.020;5.304;2022-11-20T14:02:25;0.73;;;0.57;;
19213;SDS011;9741;51.020;5.304;2022-11-20T14:04:56;1.90;;;1.33;;
19213;SDS011;9741;51.020;5.304;2022-11-20T14:07:27;1.70;;;0.50;;
19213;SDS011;9741;51.020;5.304;2022-11-20T14:10:04;0.33;;;0.33;;
19213;SDS011;9741;51.020;5.304;2022-11-20T14:12:38;0.40;;;0.40;;
19213;SDS011;9741;51.020;5.304;2022-11-20T14:15:26;1.83;;;0.60;;
19213;SDS011;9741;51.020;5.304;2022-11-20T14:17:56;0.37;;;0.37;;
19213;SDS011;9741;51.020;5.304;2022-11-20T14:20:25;3.27;;;1.00;;
19213;SDS011;9741;51.020;5.304;2022-11-20T14:22:58;0.90;;;0.70;;
19213;SDS011;9741;51.020;5.304;2022-11-20T14:25:26;0.73;;;0.60;;
19213;SDS011;9741;51.020;5.304;2022-11-20T14:28:00;1.07;;;0.60;;
19213;SDS011;9741;51.020;5.304;2022-11-20T14:30:42;3.20;;;0.87;;
19213;SDS011;9741;51.020;5.304;2022-11-20T14:33:13;0.50;;;0.50;;
19213;SDS011;9741;51.020;5.304;2022-11-20T14:35:46;1.90;;;1.13;;
19213;SDS011;9741;51.020;5.304;2022-11-20T14:38:18;1.13;;;0.90;;
19213;SDS011;9741;51.020;5.304;2022-11-20T14:40:52;0.80;;;0.80;;
19213;SDS011;9741;51.020;5.304;2022-11-20T14:43:35;0.53;;;0.53;;
19213;SDS011;9741;51.020;5.304;2022-11-20T14:49:00;4.23;;;0.83;;
19213;SDS011;9741;51.020;5.304;2022-11-20T14:51:33;1.07;;;0.97;;
19213;SDS011;9741;51.020;5.304;2022-11-20T14:54:09;0.83;;;0.83;;
19213;SDS011;9741;51.020;5.304;2022-11-20T14:56:38;1.53;;;1.43;;
19213;SDS011;9741;51.020;5.304;2022-11-20T14:59:08;0.47;;;0.47;;
19213;SDS011;9741;51.020;5.304;2022-11-20T15:01:38;0.50;;;0.50;;
19213;SDS011;9741;51.020;5.304;2022-11-20T15:04:06;0.70;;;0.70;;
19213;SDS011;9741;51.020;5.304;2022-11-20T15:06:36;0.53;;;0.53;;
19213;SDS011;9741;51.020;5.304;2022-11-20T15:09:17;0.70;;;0.70;;
19213;SDS011;9741;51.020;5.304;2022-11-20T15:11:52;0.70;;;0.70;;
19213;SDS011;9741;51.020;5.304;2022-11-20T15:14:23;0.63;;;0.57;;
19213;SDS011;9741;51.020;5.304;2022-11-20T15:16:57;0.60;;;0.60;;
19213;SDS011;9741;51.020;5.304;2022-11-20T15:19:31;0.40;;;0.40;;
19213;SDS011;9741;51.020;5.304;2022-11-20T15:22:03;0.43;;;0.43;;
19213;SDS011;9741;51.020;5.304;2022-11-20T15:24:43;0.63;;;0.63;;
19213;SDS011;9741;51.020;5.304;2022-11-20T15:27:10;1.30;;;0.97;;
19213;SDS011;9741;51.020;5.304;2022-11-20T15:29:41;1.20;;;1.10;;
19213;SDS011;9741;51.020;5.304;2022-11-20T15:32:13;0.70;;;0.70;;
19213;SDS011;9741;51.020;5.304;2022-11-20T15:34:45;0.37;;;0.37;;
19213;SDS011;9741;51.020;5.304;2022-11-20T15:37:13;0.63;;;0.63;;
19213;SDS011;9741;51.020;5.304;2022-11-20T15:39:43;0.80;;;0.80;;
19213;SDS011;9741;51.020;5.304;2022-11-20T15:42:11;0.67;;;0.67;;
19213;SDS011;9741;51.020;5.304;2022-11-20T15:44:39;0.63;;;0.63;;
19213;SDS011;9741;51.020;5.304;2022-11-20T15:47:08;0.70;;;0.70;;
19213;SDS011;9741;51.020;5.304;2022-11-20T15:49:39;2.53;;;1.07;;
19213;SDS011;9741;51.020;5.304;2022-11-20T15:52:08;0.57;;;0.57;;
19213;SDS011;9741;51.020;5.304;2022-11-20T15:54:37;2.13;;;1.43;;